createdAt,value
2023-04-02T00:01:03.012Z,4688.00
2023-04-02T00:05:02.696Z,4552.00
2023-04-02T00:09:02.674Z,4533.00
2023-04-02T00:13:02.632Z,5258.00
2023-04-02T00:17:02.583Z,4790.00
2023-04-02T00:21:02.573Z,4549.00
2023-04-02T00:25:02.495Z,4553.00
2023-04-02T00:29:02.498Z,4736.00
2023-04-02T00:33:02.482Z,4898.00
2023-04-02T00:37:02.378Z,5055.00
2023-04-02T00:41:02.534Z,5186.00
2023-04-02T00:45:02.368Z,5083.00
2023-04-02T00:49:02.309Z,5215.00
2023-04-02T00:53:02.248Z,5399.00
2023-04-02T00:57:02.260Z,4672.00
2023-04-02T01:01:02.549Z,4478.00
2023-04-02T01:05:02.226Z,4247.00
2023-04-02T01:09:02.158Z,4391.00
2023-04-02T01:13:02.537Z,4152.00
2023-04-02T01:17:02.044Z,4317.00
2023-04-02T01:21:02.025Z,4554.00
2023-04-02T01:25:02.059Z,4153.00
2023-04-02T01:29:01.984Z,4080.00
2023-04-02T01:33:02.077Z,4236.00
2023-04-02T01:37:02.038Z,4647.00
2023-04-02T01:41:01.879Z,4349.00
2023-04-02T01:45:02.093Z,4546.00
2023-04-02T01:49:01.874Z,3960.00
2023-04-02T01:53:03.661Z,3947.00
2023-04-02T01:57:03.525Z,4163.00
2023-04-02T02:01:02.137Z,4434.00
2023-04-02T02:05:01.660Z,4486.00
2023-04-02T02:09:01.743Z,3989.00
2023-04-02T02:13:01.940Z,3937.00
2023-04-02T02:17:02.088Z,3872.00
2023-04-02T02:21:01.911Z,3792.00
2023-04-02T02:25:02.025Z,3977.00
2023-04-02T02:29:02.083Z,4186.00
2023-04-02T02:33:02.626Z,4611.00
2023-04-02T02:37:02.180Z,5079.00
2023-04-02T02:41:02.574Z,4887.00
2023-04-02T02:45:02.560Z,5232.00
2023-04-02T02:49:02.365Z,5246.00
2023-04-02T02:53:02.417Z,5072.00
2023-04-02T02:57:02.520Z,5080.00
2023-04-02T03:01:02.686Z,5068.00
2023-04-02T03:05:02.877Z,4869.00
2023-04-02T03:09:02.855Z,4829.00
2023-04-02T03:13:03.074Z,4900.00
2023-04-02T03:17:03.094Z,4851.00
2023-04-02T03:21:03.541Z,5227.00
2023-04-02T03:25:03.385Z,5187.00
2023-04-02T03:29:03.661Z,5219.00
2023-04-02T03:33:03.612Z,5272.00
2023-04-02T03:37:04.066Z,5239.00
2023-04-02T03:41:03.851Z,5053.00
2023-04-02T03:45:03.822Z,4945.00
2023-04-02T03:49:04.021Z,4743.00
2023-04-02T03:53:04.063Z,4461.00
2023-04-02T03:57:04.558Z,4676.00
2023-04-02T04:01:04.525Z,5017.00
2023-04-02T04:05:04.564Z,5136.00
2023-04-02T04:09:04.701Z,5267.00
2023-04-02T04:13:05.115Z,5431.00
2023-04-02T04:17:05.610Z,5515.00
2023-04-02T04:21:05.549Z,5467.00
2023-04-02T04:25:05.611Z,5126.00
2023-04-02T04:29:06.084Z,5325.00
2023-04-02T04:33:05.946Z,5755.00
2023-04-02T04:37:06.633Z,5646.00
2023-04-02T04:41:06.036Z,5593.00
2023-04-02T04:45:06.614Z,5633.00
2023-04-02T04:49:06.033Z,5413.00
2023-04-02T04:53:06.060Z,5517.00
2023-04-02T04:57:05.994Z,5438.00
2023-04-02T05:01:06.033Z,5444.00
2023-04-02T05:05:05.965Z,5255.00
2023-04-02T05:09:05.917Z,4982.00
2023-04-02T05:13:06.099Z,4844.00
2023-04-02T05:17:06.121Z,5004.00
2023-04-02T05:21:06.149Z,4807.00
2023-04-02T05:25:06.535Z,4838.00
2023-04-02T05:29:06.341Z,5094.00
2023-04-02T05:33:06.669Z,5258.00
2023-04-02T05:37:07.179Z,5219.00
2023-04-02T05:41:06.450Z,5228.00
2023-04-02T05:45:06.590Z,5056.00
2023-04-02T05:49:06.616Z,4713.00
2023-04-02T05:53:06.721Z,4445.00
2023-04-02T05:57:06.755Z,4303.00
2023-04-02T06:01:06.722Z,4425.00
2023-04-02T06:05:06.661Z,4454.00
2023-04-02T06:09:07.124Z,4407.00
2023-04-02T06:13:06.713Z,4611.00
2023-04-02T06:17:06.742Z,4898.00
2023-04-02T06:21:07.224Z,4835.00
2023-04-02T06:25:07.053Z,4913.00
2023-04-02T06:29:07.155Z,4821.00
2023-04-02T06:33:07.337Z,4670.00
2023-04-02T06:37:07.439Z,4431.00
2023-04-02T06:41:07.627Z,4375.00
2023-04-02T06:45:07.599Z,4549.00
2023-04-02T06:49:07.603Z,4609.00
2023-04-02T06:53:07.534Z,3867.00
2023-04-02T06:57:07.569Z,3996.00
2023-04-02T07:01:07.618Z,3625.00
2023-04-02T07:05:07.481Z,3152.00
2023-04-02T07:09:07.428Z,3194.00
2023-04-02T07:13:07.678Z,3095.00
2023-04-02T07:17:07.296Z,3269.00
2023-04-02T07:21:07.665Z,3350.00
2023-04-02T07:25:07.229Z,2575.00
2023-04-02T07:29:07.206Z,2222.00
2023-04-02T07:33:07.750Z,2434.00
2023-04-02T07:37:07.127Z,1942.00
2023-04-02T07:41:07.191Z,2092.00
2023-04-02T07:45:07.081Z,1794.00
2023-04-02T07:49:07.380Z,1914.00
2023-04-02T07:53:07.341Z,1841.00
2023-04-02T07:57:07.248Z,1697.00
2023-04-02T08:01:07.176Z,1293.00
2023-04-02T08:05:07.626Z,1237.00
2023-04-02T08:09:07.200Z,957.00
2023-04-02T08:13:07.074Z,604.00
2023-04-02T08:17:07.157Z,553.00
2023-04-02T08:21:07.167Z,648.00
2023-04-02T08:25:07.006Z,529.00
2023-04-02T08:29:07.342Z,546.00
2023-04-02T08:33:07.008Z,520.00
2023-04-02T08:37:07.099Z,1047.00
2023-04-02T08:41:07.153Z,616.00
2023-04-02T08:45:21.183Z,607.00
2023-04-02T08:49:08.172Z,615.00
2023-04-02T08:53:06.752Z,501.00
2023-04-02T08:57:06.951Z,629.00
2023-04-02T09:01:07.092Z,528.00
2023-04-02T09:05:07.248Z,660.00
2023-04-02T09:09:07.645Z,596.00
2023-04-02T09:13:07.390Z,568.00
2023-04-02T09:17:07.455Z,495.00
2023-04-02T09:21:07.642Z,526.00
2023-04-02T09:25:07.328Z,428.00
2023-04-02T09:29:07.678Z,496.00
2023-04-02T09:33:07.901Z,600.00
2023-04-02T09:37:08.249Z,477.00
2023-04-02T09:41:07.952Z,727.00
2023-04-02T09:45:08.165Z,627.00
2023-04-02T09:49:08.289Z,498.00
2023-04-02T09:53:08.446Z,632.00
2023-04-02T09:57:08.675Z,686.00
2023-04-02T10:01:08.620Z,1102.00
2023-04-02T10:05:08.643Z,771.00
2023-04-02T10:09:08.659Z,641.00
2023-04-02T10:13:09.145Z,465.00
2023-04-02T10:17:08.971Z,525.00
2023-04-02T10:21:09.143Z,514.00
2023-04-02T10:25:09.041Z,636.00
2023-04-02T10:29:09.058Z,891.00
2023-04-02T10:33:09.096Z,740.00
2023-04-02T10:37:09.153Z,1276.00
2023-04-02T10:41:09.178Z,980.00
2023-04-02T10:45:09.149Z,958.00
2023-04-02T10:49:09.131Z,691.00
2023-04-02T10:53:09.691Z,702.00
2023-04-02T10:57:09.049Z,883.00
2023-04-02T11:01:09.200Z,1184.00
2023-04-02T11:05:08.935Z,1012.00
2023-04-02T11:09:08.913Z,1082.00
2023-04-02T11:13:08.891Z,643.00
2023-04-02T11:17:09.181Z,601.00
2023-04-02T11:21:09.146Z,690.00
2023-04-02T11:25:08.780Z,567.00
2023-04-02T11:29:08.753Z,544.00
2023-04-02T11:33:09.220Z,558.00
2023-04-02T11:37:08.676Z,697.00
2023-04-02T11:41:08.649Z,780.00
2023-04-02T11:45:08.667Z,628.00
2023-04-02T11:49:08.737Z,602.00
2023-04-02T11:53:08.869Z,637.00
2023-04-02T11:57:08.876Z,501.00
2023-04-02T12:01:08.773Z,559.00
2023-04-02T12:05:08.747Z,578.00
2023-04-02T12:09:08.744Z,512.00
2023-04-02T12:13:08.620Z,509.00
2023-04-02T12:17:09.985Z,541.00
2023-04-02T12:21:08.607Z,500.00
2023-04-02T12:25:08.565Z,465.00
2023-04-02T12:29:08.476Z,634.00
2023-04-02T12:33:08.916Z,519.00
2023-04-02T12:37:08.604Z,678.00
2023-04-02T12:41:08.706Z,577.00
2023-04-02T12:45:08.380Z,578.00
2023-04-02T12:49:08.747Z,963.00
2023-04-02T12:53:08.320Z,856.00
2023-04-02T12:57:08.757Z,792.00
2023-04-02T13:01:20.387Z,1036.00
2023-04-02T13:05:08.705Z,1118.00
2023-04-02T13:09:08.727Z,1004.00
2023-04-02T13:13:08.317Z,1044.00
2023-04-02T13:17:08.156Z,1231.00
2023-04-02T13:21:08.162Z,729.00
2023-04-02T13:25:08.222Z,680.00
2023-04-02T13:29:08.333Z,1056.00
2023-04-02T13:33:08.276Z,904.00
2023-04-02T13:37:07.995Z,1039.00
2023-04-02T13:41:07.978Z,1302.00
2023-04-02T13:45:07.956Z,1058.00
2023-04-02T13:49:08.265Z,1088.00
2023-04-02T13:53:10.384Z,1019.00
2023-04-02T13:57:08.244Z,986.00
2023-04-02T14:01:07.816Z,1162.00
2023-04-02T14:05:07.856Z,1218.00
2023-04-02T14:09:08.266Z,642.00
2023-04-02T14:13:07.680Z,852.00
2023-04-02T14:17:07.861Z,1056.00
2023-04-02T14:21:07.707Z,1478.00
2023-04-02T14:25:07.792Z,639.00
2023-04-02T14:29:07.555Z,596.00
2023-04-02T14:33:07.806Z,655.00
2023-04-02T14:37:07.480Z,1238.00
2023-04-02T14:41:07.473Z,1335.00
2023-04-02T14:45:07.758Z,708.00
2023-04-02T14:49:07.554Z,1341.00
2023-04-02T14:53:07.550Z,1761.00
2023-04-02T14:57:07.530Z,1817.00
2023-04-02T15:01:07.503Z,1749.00
2023-04-02T15:05:07.774Z,1745.00
2023-04-02T15:09:09.687Z,2278.00
2023-04-02T15:13:07.798Z,2330.00
2023-04-02T15:17:07.793Z,2706.00
2023-04-02T15:21:07.892Z,2769.00
2023-04-02T15:25:08.257Z,2576.00
2023-04-02T15:29:15.831Z,2485.00
2023-04-02T15:33:09.353Z,2129.00
2023-04-02T15:37:07.841Z,1992.00
2023-04-02T15:41:07.804Z,1788.00
2023-04-02T15:45:08.428Z,1753.00
2023-04-02T15:49:07.764Z,1983.00
2023-04-02T15:53:07.741Z,1991.00
2023-04-02T15:57:07.963Z,1853.00
2023-04-02T16:01:08.061Z,1995.00
2023-04-02T16:05:07.966Z,2048.00
2023-04-02T16:09:08.056Z,2660.00
2023-04-02T16:13:08.035Z,1794.00
2023-04-02T16:17:21.473Z,1762.00
2023-04-02T16:21:09.094Z,2044.00
2023-04-02T16:25:08.276Z,2164.00
2023-04-02T16:29:08.156Z,2355.00
2023-04-02T16:33:08.074Z,2475.00
2023-04-02T16:37:07.954Z,2984.00
2023-04-02T16:41:09.221Z,2396.00
2023-04-02T16:45:08.050Z,1647.00
2023-04-02T16:49:08.441Z,1899.00
2023-04-02T16:53:08.226Z,2703.00
2023-04-02T16:57:08.338Z,2229.00
2023-04-02T17:01:08.531Z,2417.00
2023-04-02T17:05:08.499Z,2738.00
2023-04-02T17:09:08.806Z,3123.00
2023-04-02T17:13:08.893Z,2940.00
2023-04-02T17:17:08.849Z,2634.00
2023-04-02T17:21:09.309Z,2412.00
2023-04-02T17:25:08.773Z,2522.00
2023-04-02T17:29:08.745Z,3232.00
2023-04-02T17:33:08.810Z,2868.00
2023-04-02T17:37:08.831Z,3018.00
2023-04-02T17:41:08.653Z,3124.00
2023-04-02T17:45:08.784Z,2925.00
2023-04-02T17:49:08.573Z,3025.00
2023-04-02T17:53:08.819Z,2962.00
2023-04-02T17:57:08.524Z,3101.00
2023-04-02T18:01:08.837Z,3358.00
2023-04-02T18:05:08.818Z,3477.00
2023-04-02T18:09:08.440Z,3779.00
2023-04-02T18:13:08.411Z,4057.00
2023-04-02T18:17:08.843Z,4348.00
2023-04-02T18:21:09.086Z,4324.00
2023-04-02T18:25:08.746Z,4070.00
2023-04-02T18:29:09.036Z,4106.00
2023-04-02T18:33:09.348Z,4321.00
2023-04-02T18:37:09.187Z,4354.00
2023-04-02T18:41:09.282Z,4269.00
2023-04-02T18:45:09.317Z,4484.00
2023-04-02T18:49:09.158Z,4661.00
2023-04-02T18:53:09.176Z,4639.00
2023-04-02T18:57:09.231Z,4685.00
2023-04-02T19:01:09.411Z,4393.00
2023-04-02T19:05:09.319Z,4480.00
2023-04-02T19:09:09.836Z,4524.00
2023-04-02T19:15:19.812Z,500.00
2023-04-02T19:19:19.830Z,568.00
2023-04-02T19:23:19.957Z,543.00
2023-04-02T19:27:19.653Z,544.00
2023-04-02T19:31:19.984Z,570.00
2023-04-02T19:35:19.593Z,570.00
2023-04-02T19:39:19.966Z,569.00
2023-04-02T19:43:19.989Z,644.00
2023-04-02T19:47:19.477Z,604.00
2023-04-02T19:51:19.489Z,681.00
2023-04-02T19:55:19.422Z,663.00
2023-04-02T19:59:19.493Z,606.00
2023-04-02T20:03:19.505Z,607.00
2023-04-02T20:07:19.404Z,666.00
2023-04-02T20:11:19.364Z,750.00
2023-04-02T20:15:19.352Z,649.00
2023-04-02T20:19:19.555Z,665.00
2023-04-02T20:23:19.465Z,901.00
2023-04-02T20:27:19.239Z,733.00
2023-04-02T20:31:19.542Z,563.00
2023-04-02T20:35:19.245Z,720.00
2023-04-02T20:39:19.195Z,633.00
2023-04-02T20:43:19.591Z,808.00
2023-04-02T20:47:19.075Z,1011.00
2023-04-02T20:51:19.597Z,1166.00
2023-04-02T20:55:18.978Z,1123.00
2023-04-02T20:59:19.168Z,1183.00
2023-04-02T21:03:19.061Z,1241.00
2023-04-02T21:07:18.917Z,1109.00
2023-04-02T21:11:18.844Z,1183.00
2023-04-02T21:15:19.074Z,1234.00
2023-04-02T21:19:19.136Z,1094.00
2023-04-02T21:23:19.308Z,1088.00
2023-04-02T21:27:19.475Z,1191.00
2023-04-02T21:31:19.800Z,922.00
2023-04-02T21:35:19.985Z,866.00
2023-04-02T21:39:19.861Z,988.00
2023-04-02T21:43:20.172Z,949.00
2023-04-02T21:47:19.840Z,907.00
2023-04-02T21:51:19.819Z,822.00
2023-04-02T21:55:20.039Z,877.00
2023-04-02T21:59:19.710Z,799.00
2023-04-02T22:03:31.051Z,974.00
2023-04-02T22:07:20.625Z,841.00
2023-04-02T22:11:19.597Z,1043.00
2023-04-02T22:15:20.013Z,1054.00
2023-04-02T22:19:19.731Z,954.00
2023-04-02T22:23:20.569Z,916.00
2023-04-02T22:27:19.690Z,851.00
2023-04-02T22:31:19.789Z,939.00
2023-04-02T22:35:19.903Z,893.00
2023-04-02T22:39:19.773Z,907.00
2023-04-02T22:43:20.144Z,942.00
2023-04-02T22:47:20.094Z,1100.00
2023-04-02T22:51:20.079Z,1142.00
2023-04-02T22:55:20.142Z,1237.00
2023-04-02T22:59:20.553Z,1163.00
2023-04-02T23:03:20.217Z,1085.00
2023-04-02T23:07:20.296Z,1111.00
2023-04-02T23:11:20.448Z,1113.00
2023-04-02T23:15:32.166Z,1075.00
2023-04-02T23:19:20.381Z,1110.00
2023-04-02T23:23:20.587Z,824.00
2023-04-02T23:27:31.867Z,852.00
2023-04-02T23:31:20.608Z,861.00
2023-04-02T23:35:20.309Z,767.00
2023-04-02T23:39:20.260Z,855.00
2023-04-02T23:43:20.594Z,839.00
2023-04-02T23:47:20.172Z,655.00
2023-04-02T23:51:20.644Z,534.00
2023-04-02T23:55:20.136Z,496.00
2023-04-02T23:59:20.086Z,521.00
